Logo AVAMET
Benvolgut visitant, si us plau, ingressa Recuperar contrasenya
AVAMET paisatges

Bétera la Conarda

Dades diàries. Acumulats / Últims 30 dies disponibles

Data Temperatura (°C) Humitat rel. (%) Pressió rel. (hPa) Vent (km/h) Precipitació
Mínima Mitjana Màxima Amplitud
tèrmica
Mínima Mitjana Màxima Mínima Mitjana Màxima Predom. Mitjana Ràfega
màxima
Total
(mm)
Índex-n
Mínima Mitjana Màxima Mínima Mitjana Màxima n
0 a 1
P0 max
mm 5'
Dades mensuals acumulades fins l'últim dia disponible
02/2020 5,1 9,0 12,6 14,7 14,6 20,8 27,8 22,7 30 72 98 1.020 1.026 1.033   2,0 31,0 2,0
Dades anuals acumulades fins l'últim dia disponible
2020 1,1 7,1 13,1 12,3 8,7 17,6 27,8 26,7 30 73 98 1.013 1.025 1.034   2,0 85,0 115,4
Últims 30 dies disponibles
18-02-2020 8,6     11,9     23,8 15,2 73 91 94 1.030 1.031 1.033 SSE 2,0 25,7 0,8
17-02-2020 8,6     16,2     23,8 15,2 44 70 96 1.022 1.026 1.030 26,0 0,2
16-02-2020 7,9     12,0     16,1 8,2 78 87 95 1.024 1.026 1.028 21,0 0,4
15-02-2020 7,2     13,2     19,2 12,0 59 76 93 1.024 1.026 1.028 19,0 0,0
14-02-2020 8,9     14,8     20,8 11,9 47 70 92 1.024 1.025 1.026 21,0 0,0
13-02-2020 8,8     14,0     19,2 10,4 67 83 98 1.020 1.022 1.024 16,0 0,2
12-02-2020 10,8     14,8     18,7 7,9 61 77 93 1.023 1.024 1.025 27,0 0,0
11-02-2020 11,6     18,1     24,5 12,9 40 62 84 1.021 1.024 1.026 19,0 0,0
10-02-2020 8,8     16,8     24,7 15,9 44 64 84 1.025 1.028 1.030 21,0 0,0
09-02-2020 6,2     11,9     17,7 11,5 60 78 96 1.027 1.029 1.031 16,0 0,2
08-02-2020 5,3     11,3     17,3 12,0 59 76 93 1.023 1.026 1.028 18,0 0,2
07-02-2020 7,9     11,2     14,6 6,7 68 80 92 1.023 1.025 1.026 13,0 0,0
06-02-2020 5,1     10,2     15,3 10,2 57 75 92 1.025 1.027 1.029 19,0 0,0
05-02-2020 8,6     12,0     15,4 6,8 47 69 91 1.027 1.029 1.031 21,0 0,0
04-02-2020 12,6     21,1     27,8 15,2 30 46 62 1.021 1.024 1.027 31,0 0,0
03-02-2020 11,7     19,1     26,4 14,7 37 59 81 1.026 1.028 1.029 15,0 0,0
02-02-2020 11,6     17,9     24,1 12,5 46 65 84 1.025 1.027 1.029 19,0 0,0
01-02-2020 11,9     18,8     25,6 13,7 45 63 80 1.020 1.023 1.026 24,0 0,0
31-01-2020 12,3     17,6     22,8 10,5 49 63 77 1.020 1.022 1.024 23,0 0,0
30-01-2020 12,4     16,4     20,3 7,9 47 62 77 1.019 1.021 1.023 34,0 0,0
29-01-2020 13,1     16,9     20,6 7,5 56 67 78 1.020 1.022 1.023 27,0 0,0
28-01-2020 13,0     14,8     16,6 3,6 67 73 78 1.019 1.021 1.022 35,0 0,0
27-01-2020 5,8     11,2     16,7 10,9 53 69 85 1.020 1.023 1.025 34,0 0,0
26-01-2020 7,6     13,2     18,9 11,3 44 69 94 1.018 1.022 1.025 24,0 0,2
25-01-2020 9,4     11,6     13,7 4,3 81 88 95 1.017 1.019 1.021 21,0 1,4
24-01-2020 7,1     10,4     13,7 6,6 75 87 98 1.020 1.022 1.023 11,0 0,2
23-01-2020 4,8     8,7     12,6 7,8 74 85 95 1.019 1.021 1.023 16,0 0,8
22-01-2020 6,7     9,8     12,9 6,2 81 88 94 1.018 1.019 1.020 29,0 7,8 0,23 1,20
21-01-2020 6,3     9,1     11,8 5,5 85 92 98 1.013 1.017 1.020 58,0 58,2 0,59 9,40
20-01-2020 5,0     6,8     8,7 3,7 58 75 92 1.018 1.020 1.022 85,0 24,4 0,33 2,50
Últims 13 mesos disponibles
01/2020 1,1 5,9 13,1 10,8 8,7 15,7 22,8 21,7 56 73 92 1.017 1.025 1.033 85,0 113,4
12/2019 3,1 9,1 15,4 13,5 11,4 17,8 24,4 21,3 54 70 91 1.002 1.019 1.034 74,0 54,0
11/2019 4,3 10,6 19,7 15,2 15,3 19,9 28,9 24,6 46 58 82 1.000 1.010 1.018 56,0 3,8
10/2019 9,2 14,6 19,5 19,8 14,8 24,9 34,8 25,6 45 67 84 1.008 1.016 1.022 42,0 22,8
09/2019 14,7 18,6 22,4 23,1 20,6 27,5 34,0 19,3 58 72 81 1.011 1.018 1.025 E 0,5 70,8 107,2
08/2019 17,0 20,7 25,3 25,8 25,1 30,9 41,0 24,0 46 69 81 1.011 1.016 1.020 56,0 19,6
07/2019 19,4 20,8 23,1 26,1 27,4 31,3 36,7 17,3 50 65 78 1.005 1.014 1.021 42,0 7,2
06/2019 10,8 16,5 20,5 21,9 21,5 27,4 37,4 26,6 39 63 79 1.010 1.016 1.022 SE 0,3 52,0 0,0
05/2019 8,2 13,1 19,8 18,0 18,1 23,0 32,4 24,2 49 68 89 1.006 1.016 1.025 48,0 39,4
04/2019 6,8 10,1 13,0 15,0 14,8 19,8 29,3 22,5 50 66 86 1.002 1.013 1.026 SE 0,2 85,0 82,8
03/2019 4,8 7,8 15,3 13,7 11,7 20,0 29,2 24,4 49 60 87 1.010 1.023 1.030 SO 1,4 48,0 23,4
02/2019 1,6 5,8 10,5 11,8 11,9 17,9 25,9 24,3 39 63 78 996 1.025 1.034 77,0 0,6
01/2019 1,3 5,4 11,7 11,0 12,4 16,6 20,3 19,0 41 59 75 1.003 1.019 1.031 60,0 0,4
Tots els anys disponibles
2019 1,3 12,8 25,3 18,0 11,4 23,1 41,0 39,7 39 65 91 996 1.017 1.034 0,2 85,0 363,0
2018 1,3 13,3 24,9 18,0 8,4 22,8 37,2 35,9 40 67 96 994 1.016 1.036 SSO 0,3 64,0 621,6
2017 -1,3 12,8 23,9 17,8 7,9 22,7 36,8 38,1 35 67 92 999 1.020 1.037 0,0 77,0 367,7
2016 2,1 13,5 24,8 18,1 10,4 22,8 36,9 34,8 58 67 77 1.011 1.016 1.021 64,0 383,2
2015 0,1 13,1 19,6 18,2 22,7 23,3 41,8 41,7 58 66 75 1.015 1.019 1.030 135,0 427,4
2014 1,2 13,7 23,9 18,5 10,1 23,3 41,2 40,0 38 65 90 993 1.016 1.033 66,0 282,4
Temperatura (°C)
Humitat relativa (%)
Velocitat del vent i ràfega màxima (km/h)
Direcció del vent (°)
Pressió (hPa)
Precipitació (mm)
Nota sobre les dades: s'avisa a l'usuari de la provisionalitat i no oficialitat d'aquestes dades
Logo AVAMET blanc
Web allotjada a Sollutia
Llicència de Creative CommonsLa web d'AVAMET i els seus continguts estan subjectes a una llicència de
Reconeixement - No Comercial - Compartir igual
Últimes estacions:  Sorita (AVAMET), Gorga (Soci), Massalavés - Ajuntament (Soci/Inforatge), Albuixech - Polígon (Inforatge), La Torre d'en Besora (Ajuntament soci), Xixona - Sogorb Barranc Blanc (Soci), Pedreguer - Patronat (Soci) - - -